sensor_id;sensor_type;location;lat;lon;timestamp;temperature;humidity
71184;DHT22;58887;51.980;4.464;2023-10-19T00:00:37;13.94;88.83
71184;DHT22;58887;51.980;4.464;2023-10-19T00:03:10;14.00;88.75
71184;DHT22;58887;51.980;4.464;2023-10-19T00:05:37;14.04;88.72
71184;DHT22;58887;51.980;4.464;2023-10-19T00:08:04;14.05;88.77
71184;DHT22;58887;51.980;4.464;2023-10-19T00:10:32;14.12;88.95
71184;DHT22;58887;51.980;4.464;2023-10-19T00:13:04;14.11;88.75
71184;DHT22;58887;51.980;4.464;2023-10-19T00:15:34;14.24;88.73
71184;DHT22;58887;51.980;4.464;2023-10-19T00:18:06;14.29;88.66
71184;DHT22;58887;51.980;4.464;2023-10-19T00:20:48;14.33;88.60
71184;DHT22;58887;51.980;4.464;2023-10-19T00:23:32;14.36;88.28
71184;DHT22;58887;51.980;4.464;2023-10-19T00:25:59;14.35;88.36
71184;DHT22;58887;51.980;4.464;2023-10-19T00:28:26;14.37;88.43
71184;DHT22;58887;51.980;4.464;2023-10-19T00:30:53;14.37;88.33
71184;DHT22;58887;51.980;4.464;2023-10-19T00:33:24;14.45;88.36
71184;DHT22;58887;51.980;4.464;2023-10-19T00:35:54;14.47;88.60
71184;DHT22;58887;51.980;4.464;2023-10-19T00:38:37;14.50;88.67
71184;DHT22;58887;51.980;4.464;2023-10-19T00:41:03;14.50;88.76
71184;DHT22;58887;51.980;4.464;2023-10-19T00:43:37;14.52;88.95
71184;DHT22;58887;51.980;4.464;2023-10-19T00:46:09;14.56;88.79
71184;DHT22;58887;51.980;4.464;2023-10-19T00:49:04;14.76;88.74
71184;DHT22;58887;51.980;4.464;2023-10-19T00:51:53;14.74;88.56
71184;DHT22;58887;51.980;4.464;2023-10-19T00:54:34;14.76;88.60
71184;DHT22;58887;51.980;4.464;2023-10-19T00:57:03;14.74;88.81
71184;DHT22;58887;51.980;4.464;2023-10-19T00:59:40;14.79;88.93
71184;DHT22;58887;51.980;4.464;2023-10-19T01:02:18;14.74;88.99
71184;DHT22;58887;51.980;4.464;2023-10-19T01:04:45;14.88;89.09
71184;DHT22;58887;51.980;4.464;2023-10-19T01:07:16;14.91;88.59
71184;DHT22;58887;51.980;4.464;2023-10-19T01:09:57;14.88;88.81
71184;DHT22;58887;51.980;4.464;2023-10-19T01:12:24;14.90;88.91
71184;DHT22;58887;51.980;4.464;2023-10-19T01:15:14;15.01;89.37
71184;DHT22;58887;51.980;4.464;2023-10-19T01:17:56;15.05;89.93
71184;DHT22;58887;51.980;4.464;2023-10-19T01:20:30;15.12;90.75
71184;DHT22;58887;51.980;4.464;2023-10-19T01:23:04;15.23;90.98
71184;DHT22;58887;51.980;4.464;2023-10-19T01:25:49;15.32;90.76
71184;DHT22;58887;51.980;4.464;2023-10-19T01:28:41;15.46;90.90
71184;DHT22;58887;51.980;4.464;2023-10-19T01:31:09;15.55;90.50
71184;DHT22;58887;51.980;4.464;2023-10-19T01:33:40;15.56;90.58
71184;DHT22;58887;51.980;4.464;2023-10-19T01:36:08;15.66;90.66
71184;DHT22;58887;51.980;4.464;2023-10-19T01:38:37;15.69;90.25
71184;DHT22;58887;51.980;4.464;2023-10-19T01:41:08;15.81;90.13
71184;DHT22;58887;51.980;4.464;2023-10-19T01:43:45;15.85;89.72
71184;DHT22;58887;51.980;4.464;2023-10-19T01:46:14;15.86;89.61
71184;DHT22;58887;51.980;4.464;2023-10-19T01:48:49;15.87;89.26
71184;DHT22;58887;51.980;4.464;2023-10-19T01:51:18;15.90;89.38
71184;DHT22;58887;51.980;4.464;2023-10-19T01:53:46;15.96;88.90
71184;DHT22;58887;51.980;4.464;2023-10-19T01:56:14;15.94;88.85
71184;DHT22;58887;51.980;4.464;2023-10-19T01:58:41;16.07;88.82
71184;DHT22;58887;51.980;4.464;2023-10-19T02:01:08;16.07;88.54
71184;DHT22;58887;51.980;4.464;2023-10-19T02:03:38;16.02;88.49
71184;DHT22;58887;51.980;4.464;2023-10-19T02:06:08;16.02;88.56
71184;DHT22;58887;51.980;4.464;2023-10-19T02:08:50;16.00;88.10
71184;DHT22;58887;51.980;4.464;2023-10-19T02:11:20;16.16;87.89
71184;DHT22;58887;51.980;4.464;2023-10-19T02:13:48;16.17;87.44
71184;DHT22;58887;51.980;4.464;2023-10-19T02:16:17;16.14;87.18
71184;DHT22;58887;51.980;4.464;2023-10-19T02:18:50;16.16;87.18
71184;DHT22;58887;51.980;4.464;2023-10-19T02:21:16;16.16;87.18
71184;DHT22;58887;51.980;4.464;2023-10-19T02:23:50;16.06;87.20
71184;DHT22;58887;51.980;4.464;2023-10-19T02:26:22;16.09;87.25
71184;DHT22;58887;51.980;4.464;2023-10-19T02:28:53;16.00;87.13
71184;DHT22;58887;51.980;4.464;2023-10-19T02:31:22;16.07;87.05
71184;DHT22;58887;51.980;4.464;2023-10-19T02:33:49;16.07;86.81
71184;DHT22;58887;51.980;4.464;2023-10-19T02:36:24;16.16;86.63
71184;DHT22;58887;51.980;4.464;2023-10-19T02:38:53;16.16;86.46
71184;DHT22;58887;51.980;4.464;2023-10-19T02:41:19;16.00;86.70
71184;DHT22;58887;51.980;4.464;2023-10-19T02:43:47;15.97;86.75
71184;DHT22;58887;51.980;4.464;2023-10-19T02:46:17;16.04;86.78
71184;DHT22;58887;51.980;4.464;2023-10-19T02:48:46;15.93;86.58
71184;DHT22;58887;51.980;4.464;2023-10-19T02:51:13;15.94;86.71
71184;DHT22;58887;51.980;4.464;2023-10-19T02:53:41;15.96;86.84
71184;DHT22;58887;51.980;4.464;2023-10-19T02:56:15;15.87;86.90
71184;DHT22;58887;51.980;4.464;2023-10-19T02:58:45;15.93;86.80
71184;DHT22;58887;51.980;4.464;2023-10-19T03:01:24;15.93;86.71
71184;DHT22;58887;51.980;4.464;2023-10-19T03:03:55;15.97;86.59
71184;DHT22;58887;51.980;4.464;2023-10-19T03:06:25;16.09;86.34
71184;DHT22;58887;51.980;4.464;2023-10-19T03:08:51;15.90;86.49
71184;DHT22;58887;51.980;4.464;2023-10-19T03:11:43;15.96;86.47
71184;DHT22;58887;51.980;4.464;2023-10-19T03:14:10;15.93;86.39
71184;DHT22;58887;51.980;4.464;2023-10-19T03:16:38;15.87;86.23
71184;DHT22;58887;51.980;4.464;2023-10-19T03:19:07;15.76;86.23
71184;DHT22;58887;51.980;4.464;2023-10-19T03:21:33;15.72;86.09
71184;DHT22;58887;51.980;4.464;2023-10-19T03:24:07;15.67;86.27
71184;DHT22;58887;51.980;4.464;2023-10-19T03:26:37;15.75;86.19
71184;DHT22;58887;51.980;4.464;2023-10-19T03:29:04;15.70;85.77
71184;DHT22;58887;51.980;4.464;2023-10-19T03:31:37;15.76;85.47
71184;DHT22;58887;51.980;4.464;2023-10-19T03:34:09;15.65;85.43
71184;DHT22;58887;51.980;4.464;2023-10-19T03:36:35;15.67;85.38
71184;DHT22;58887;51.980;4.464;2023-10-19T03:39:02;15.63;85.41
71184;DHT22;58887;51.980;4.464;2023-10-19T03:41:37;15.63;85.28
71184;DHT22;58887;51.980;4.464;2023-10-19T03:44:04;15.56;85.23
71184;DHT22;58887;51.980;4.464;2023-10-19T03:46:31;15.49;85.49
71184;DHT22;58887;51.980;4.464;2023-10-19T03:48:57;15.44;85.49
71184;DHT22;58887;51.980;4.464;2023-10-19T03:51:37;15.58;85.25
71184;DHT22;58887;51.980;4.464;2023-10-19T03:54:09;15.52;85.13
71184;DHT22;58887;51.980;4.464;2023-10-19T03:56:48;15.51;85.29
71184;DHT22;58887;51.980;4.464;2023-10-19T03:59:18;15.69;85.02
71184;DHT22;58887;51.980;4.464;2023-10-19T04:01:44;15.62;84.77
71184;DHT22;58887;51.980;4.464;2023-10-19T04:04:10;15.63;84.80
71184;DHT22;58887;51.980;4.464;2023-10-19T04:06:37;15.65;84.72
71184;DHT22;58887;51.980;4.464;2023-10-19T04:09:03;15.62;84.74
71184;DHT22;58887;51.980;4.464;2023-10-19T04:11:32;15.66;84.72
71184;DHT22;58887;51.980;4.464;2023-10-19T04:14:17;15.49;85.12
71184;DHT22;58887;51.980;4.464;2023-10-19T04:16:43;15.55;85.00
71184;DHT22;58887;51.980;4.464;2023-10-19T04:19:10;15.61;84.74
71184;DHT22;58887;51.980;4.464;2023-10-19T04:21:36;15.67;84.43
71184;DHT22;58887;51.980;4.464;2023-10-19T04:24:07;15.63;84.60
71184;DHT22;58887;51.980;4.464;2023-10-19T04:26:33;15.56;84.79
71184;DHT22;58887;51.980;4.464;2023-10-19T04:29:06;15.63;84.48
71184;DHT22;58887;51.980;4.464;2023-10-19T04:31:42;15.58;84.57
71184;DHT22;58887;51.980;4.464;2023-10-19T04:34:18;15.51;84.95
71184;DHT22;58887;51.980;4.464;2023-10-19T04:36:47;15.58;84.58
71184;DHT22;58887;51.980;4.464;2023-10-19T04:39:12;15.61;84.51
71184;DHT22;58887;51.980;4.464;2023-10-19T04:41:40;15.58;84.63
71184;DHT22;58887;51.980;4.464;2023-10-19T04:44:06;15.59;84.60
71184;DHT22;58887;51.980;4.464;2023-10-19T04:46:34;15.55;84.64
71184;DHT22;58887;51.980;4.464;2023-10-19T04:49:00;15.55;84.88
71184;DHT22;58887;51.980;4.464;2023-10-19T04:51:26;15.52;84.80
71184;DHT22;58887;51.980;4.464;2023-10-19T04:53:52;15.62;84.64
71184;DHT22;58887;51.980;4.464;2023-10-19T04:56:17;15.61;84.62
71184;DHT22;58887;51.980;4.464;2023-10-19T04:58:43;15.61;84.59
71184;DHT22;58887;51.980;4.464;2023-10-19T05:01:08;15.56;84.82
71184;DHT22;58887;51.980;4.464;2023-10-19T05:03:37;15.54;84.89
71184;DHT22;58887;51.980;4.464;2023-10-19T05:06:02;15.56;84.96
71184;DHT22;58887;51.980;4.464;2023-10-19T05:08:28;15.63;84.61
71184;DHT22;58887;51.980;4.464;2023-10-19T05:10:55;15.66;84.59
71184;DHT22;58887;51.980;4.464;2023-10-19T05:13:23;15.58;84.74
71184;DHT22;58887;51.980;4.464;2023-10-19T05:15:49;15.63;84.64
71184;DHT22;58887;51.980;4.464;2023-10-19T05:18:14;15.67;84.71
71184;DHT22;58887;51.980;4.464;2023-10-19T05:20:39;15.65;84.51
71184;DHT22;58887;51.980;4.464;2023-10-19T05:23:09;15.69;84.55
71184;DHT22;58887;51.980;4.464;2023-10-19T05:25:35;15.56;84.84
71184;DHT22;58887;51.980;4.464;2023-10-19T05:28:05;15.61;84.83
71184;DHT22;58887;51.980;4.464;2023-10-19T05:30:32;15.63;85.03
71184;DHT22;58887;51.980;4.464;2023-10-19T05:32:58;15.59;84.95
71184;DHT22;58887;51.980;4.464;2023-10-19T05:35:25;15.55;85.17
71184;DHT22;58887;51.980;4.464;2023-10-19T05:37:52;15.56;85.24
71184;DHT22;58887;51.980;4.464;2023-10-19T05:40:18;15.62;85.21
71184;DHT22;58887;51.980;4.464;2023-10-19T05:42:45;15.59;85.14
71184;DHT22;58887;51.980;4.464;2023-10-19T05:45:11;15.63;85.10
71184;DHT22;58887;51.980;4.464;2023-10-19T05:47:38;15.61;85.24
71184;DHT22;58887;51.980;4.464;2023-10-19T05:50:04;15.67;85.02
71184;DHT22;58887;51.980;4.464;2023-10-19T05:52:30;15.65;85.24
71184;DHT22;58887;51.980;4.464;2023-10-19T05:54:56;15.66;85.27
71184;DHT22;58887;51.980;4.464;2023-10-19T05:57:22;15.66;85.19
71184;DHT22;58887;51.980;4.464;2023-10-19T05:59:49;15.63;85.37
71184;DHT22;58887;51.980;4.464;2023-10-19T06:02:15;15.73;85.28
71184;DHT22;58887;51.980;4.464;2023-10-19T06:04:40;15.73;85.22
71184;DHT22;58887;51.980;4.464;2023-10-19T06:07:06;15.79;84.98
71184;DHT22;58887;51.980;4.464;2023-10-19T06:09:35;15.69;85.13
71184;DHT22;58887;51.980;4.464;2023-10-19T06:12:01;15.81;85.20
71184;DHT22;58887;51.980;4.464;2023-10-19T06:14:27;15.85;84.92
71184;DHT22;58887;51.980;4.464;2023-10-19T06:16:55;15.85;85.06
71184;DHT22;58887;51.980;4.464;2023-10-19T06:19:21;15.87;84.83
71184;DHT22;58887;51.980;4.464;2023-10-19T06:21:50;15.87;85.02
71184;DHT22;58887;51.980;4.464;2023-10-19T06:24:15;15.81;85.10
71184;DHT22;58887;51.980;4.464;2023-10-19T06:26:42;15.83;85.22
71184;DHT22;58887;51.980;4.464;2023-10-19T06:29:08;15.82;85.28
71184;DHT22;58887;51.980;4.464;2023-10-19T06:31:33;15.86;84.97
71184;DHT22;58887;51.980;4.464;2023-10-19T06:33:59;15.82;85.10
71184;DHT22;58887;51.980;4.464;2023-10-19T06:36:27;15.90;84.75
71184;DHT22;58887;51.980;4.464;2023-10-19T06:38:54;15.93;84.81
71184;DHT22;58887;51.980;4.464;2023-10-19T06:41:20;15.93;84.99
71184;DHT22;58887;51.980;4.464;2023-10-19T06:43:46;15.96;84.76
71184;DHT22;58887;51.980;4.464;2023-10-19T06:46:12;15.99;84.59
71184;DHT22;58887;51.980;4.464;2023-10-19T06:48:38;16.04;84.47
71184;DHT22;58887;51.980;4.464;2023-10-19T06:51:04;16.07;84.27
71184;DHT22;58887;51.980;4.464;2023-10-19T06:53:30;16.12;84.32
71184;DHT22;58887;51.980;4.464;2023-10-19T06:55:56;16.13;84.10
71184;DHT22;58887;51.980;4.464;2023-10-19T06:58:22;16.13;84.02
71184;DHT22;58887;51.980;4.464;2023-10-19T07:00:52;16.10;84.01
71184;DHT22;58887;51.980;4.464;2023-10-19T07:03:34;16.18;83.93
71184;DHT22;58887;51.980;4.464;2023-10-19T07:05:59;16.20;83.95
71184;DHT22;58887;51.980;4.464;2023-10-19T07:08:25;16.18;83.81
71184;DHT22;58887;51.980;4.464;2023-10-19T07:10:53;16.16;84.12
71184;DHT22;58887;51.980;4.464;2023-10-19T07:13:19;16.12;84.53
71184;DHT22;58887;51.980;4.464;2023-10-19T07:15:47;16.09;84.49
71184;DHT22;58887;51.980;4.464;2023-10-19T07:18:14;16.16;84.37
71184;DHT22;58887;51.980;4.464;2023-10-19T07:20:40;16.20;84.18
71184;DHT22;58887;51.980;4.464;2023-10-19T07:23:08;16.35;83.88
71184;DHT22;58887;51.980;4.464;2023-10-19T07:25:52;16.25;83.95
71184;DHT22;58887;51.980;4.464;2023-10-19T07:28:22;16.31;83.95
71184;DHT22;58887;51.980;4.464;2023-10-19T07:30:52;16.40;83.67
71184;DHT22;58887;51.980;4.464;2023-10-19T07:33:18;16.50;83.44
71184;DHT22;58887;51.980;4.464;2023-10-19T07:35:46;16.47;83.21
71184;DHT22;58887;51.980;4.464;2023-10-19T07:38:15;16.44;83.45
71184;DHT22;58887;51.980;4.464;2023-10-19T07:40:43;16.48;83.43
71184;DHT22;58887;51.980;4.464;2023-10-19T07:43:09;16.52;83.18
71184;DHT22;58887;51.980;4.464;2023-10-19T07:45:35;16.67;82.94
71184;DHT22;58887;51.980;4.464;2023-10-19T07:48:02;16.61;82.77
71184;DHT22;58887;51.980;4.464;2023-10-19T07:50:38;16.65;82.71
71184;DHT22;58887;51.980;4.464;2023-10-19T07:53:06;16.64;82.78
71184;DHT22;58887;51.980;4.464;2023-10-19T07:55:32;16.61;83.03
71184;DHT22;58887;51.980;4.464;2023-10-19T07:57:58;16.75;82.78
71184;DHT22;58887;51.980;4.464;2023-10-19T08:00:26;16.82;82.59
71184;DHT22;58887;51.980;4.464;2023-10-19T08:02:52;16.89;82.55
71184;DHT22;58887;51.980;4.464;2023-10-19T08:05:19;16.89;82.35
71184;DHT22;58887;51.980;4.464;2023-10-19T08:07:46;16.96;82.24
71184;DHT22;58887;51.980;4.464;2023-10-19T08:10:19;17.06;82.18
71184;DHT22;58887;51.980;4.464;2023-10-19T08:12:46;17.05;81.89
71184;DHT22;58887;51.980;4.464;2023-10-19T08:15:13;17.12;81.92
71184;DHT22;58887;51.980;4.464;2023-10-19T08:17:43;17.16;81.56
71184;DHT22;58887;51.980;4.464;2023-10-19T08:20:11;17.19;81.78
71184;DHT22;58887;51.980;4.464;2023-10-19T08:22:44;17.20;81.53
71184;DHT22;58887;51.980;4.464;2023-10-19T08:25:12;17.33;81.31
71184;DHT22;58887;51.980;4.464;2023-10-19T08:27:40;17.46;81.07
71184;DHT22;58887;51.980;4.464;2023-10-19T08:30:11;17.60;80.84
71184;DHT22;58887;51.980;4.464;2023-10-19T08:32:39;17.71;80.42
71184;DHT22;58887;51.980;4.464;2023-10-19T08:35:05;18.06;80.23
71184;DHT22;58887;51.980;4.464;2023-10-19T08:37:33;18.38;79.28
71184;DHT22;58887;51.980;4.464;2023-10-19T08:40:00;18.26;77.99
71184;DHT22;58887;51.980;4.464;2023-10-19T08:42:32;18.49;77.89
71184;DHT22;58887;51.980;4.464;2023-10-19T08:45:00;18.43;78.15
71184;DHT22;58887;51.980;4.464;2023-10-19T08:47:26;18.67;77.44
71184;DHT22;58887;51.980;4.464;2023-10-19T08:49:55;18.73;77.30
71184;DHT22;58887;51.980;4.464;2023-10-19T08:52:24;18.50;77.61
71184;DHT22;58887;51.980;4.464;2023-10-19T08:54:53;18.46;78.19
71184;DHT22;58887;51.980;4.464;2023-10-19T08:57:19;18.55;77.99
71184;DHT22;58887;51.980;4.464;2023-10-19T08:59:45;18.52;78.22
71184;DHT22;58887;51.980;4.464;2023-10-19T09:02:13;18.38;77.77
71184;DHT22;58887;51.980;4.464;2023-10-19T09:04:42;18.45;77.97
71184;DHT22;58887;51.980;4.464;2023-10-19T09:07:09;18.38;78.08
71184;DHT22;58887;51.980;4.464;2023-10-19T09:09:37;18.38;78.46
71184;DHT22;58887;51.980;4.464;2023-10-19T09:12:08;18.59;78.57
71184;DHT22;58887;51.980;4.464;2023-10-19T09:14:36;18.56;78.18
71184;DHT22;58887;51.980;4.464;2023-10-19T09:17:05;18.61;78.12
71184;DHT22;58887;51.980;4.464;2023-10-19T09:22:02;18.91;77.79
71184;DHT22;58887;51.980;4.464;2023-10-19T09:24:36;19.18;76.66
71184;DHT22;58887;51.980;4.464;2023-10-19T09:27:05;19.36;76.06
71184;DHT22;58887;51.980;4.464;2023-10-19T09:29:40;19.99;74.16
71184;DHT22;58887;51.980;4.464;2023-10-19T09:32:07;19.66;74.54
71184;DHT22;58887;51.980;4.464;2023-10-19T09:34:35;19.47;74.34
71184;DHT22;58887;51.980;4.464;2023-10-19T09:37:04;19.19;75.69
71184;DHT22;58887;51.980;4.464;2023-10-19T09:39:30;19.19;75.98
71184;DHT22;58887;51.980;4.464;2023-10-19T09:42:06;19.14;76.32
71184;DHT22;58887;51.980;4.464;2023-10-19T09:44:41;19.22;76.60
71184;DHT22;58887;51.980;4.464;2023-10-19T09:47:29;19.15;76.35
71184;DHT22;58887;51.980;4.464;2023-10-19T09:49:57;18.84;76.92
71184;DHT22;58887;51.980;4.464;2023-10-19T09:52:23;18.79;77.10
71184;DHT22;58887;51.980;4.464;2023-10-19T09:55:06;18.71;77.66
71184;DHT22;58887;51.980;4.464;2023-10-19T09:57:52;19.08;77.61
71184;DHT22;58887;51.980;4.464;2023-10-19T10:00:19;19.19;76.37
71184;DHT22;58887;51.980;4.464;2023-10-19T10:02:51;19.69;75.62
71184;DHT22;58887;51.980;4.464;2023-10-19T10:10:52;19.79;74.98
71184;DHT22;58887;51.980;4.464;2023-10-19T10:16:01;20.63;73.27
71184;DHT22;58887;51.980;4.464;2023-10-19T10:18:33;20.61;72.35
71184;DHT22;58887;51.980;4.464;2023-10-19T10:21:19;21.47;69.86
71184;DHT22;58887;51.980;4.464;2023-10-19T10:23:54;21.70;69.54
71184;DHT22;58887;51.980;4.464;2023-10-19T10:26:25;21.73;67.55
71184;DHT22;58887;51.980;4.464;2023-10-19T10:29:14;21.33;69.56
71184;DHT22;58887;51.980;4.464;2023-10-19T10:31:48;21.65;69.31
71184;DHT22;58887;51.980;4.464;2023-10-19T10:37:04;21.37;68.82
71184;DHT22;58887;51.980;4.464;2023-10-19T10:39:34;20.94;70.08
71184;DHT22;58887;51.980;4.464;2023-10-19T10:42:05;20.63;71.60
71184;DHT22;58887;51.980;4.464;2023-10-19T10:44:51;20.12;72.59
71184;DHT22;58887;51.980;4.464;2023-10-19T10:47:23;20.01;72.84
71184;DHT22;58887;51.980;4.464;2023-10-19T10:49:59;20.03;73.14
71184;DHT22;58887;51.980;4.464;2023-10-19T10:52:27;20.45;73.25
71184;DHT22;58887;51.980;4.464;2023-10-19T10:54:56;21.25;71.78
71184;DHT22;58887;51.980;4.464;2023-10-19T10:57:31;22.28;68.91
71184;DHT22;58887;51.980;4.464;2023-10-19T11:00:08;22.53;65.60
71184;DHT22;58887;51.980;4.464;2023-10-19T11:02:59;22.79;65.28
71184;DHT22;58887;51.980;4.464;2023-10-19T11:05:25;22.41;66.80
71184;DHT22;58887;51.980;4.464;2023-10-19T11:10:38;21.97;66.88
71184;DHT22;58887;51.980;4.464;2023-10-19T11:13:08;21.47;68.36
71184;DHT22;58887;51.980;4.464;2023-10-19T11:15:36;20.84;70.34
71184;DHT22;58887;51.980;4.464;2023-10-19T11:18:05;20.68;71.40
71184;DHT22;58887;51.980;4.464;2023-10-19T11:20:34;20.69;71.19
71184;DHT22;58887;51.980;4.464;2023-10-19T11:23:01;20.88;71.27
71184;DHT22;58887;51.980;4.464;2023-10-19T11:25:30;20.86;70.52
71184;DHT22;58887;51.980;4.464;2023-10-19T11:28:00;20.88;70.62
71184;DHT22;58887;51.980;4.464;2023-10-19T11:30:28;20.78;71.02
71184;DHT22;58887;51.980;4.464;2023-10-19T11:32:54;20.52;70.90
71184;DHT22;58887;51.980;4.464;2023-10-19T11:35:28;20.81;71.02
71184;DHT22;58887;51.980;4.464;2023-10-19T11:37:59;21.03;70.54
71184;DHT22;58887;51.980;4.464;2023-10-19T11:40:27;21.25;69.80
71184;DHT22;58887;51.980;4.464;2023-10-19T11:42:54;21.16;69.95
71184;DHT22;58887;51.980;4.464;2023-10-19T11:45:29;20.88;70.36
71184;DHT22;58887;51.980;4.464;2023-10-19T11:47:55;20.89;70.99
71184;DHT22;58887;51.980;4.464;2023-10-19T11:50:24;20.58;71.38
71184;DHT22;58887;51.980;4.464;2023-10-19T11:52:49;20.43;71.91
71184;DHT22;58887;51.980;4.464;2023-10-19T11:55:16;20.23;72.03
71184;DHT22;58887;51.980;4.464;2023-10-19T11:57:59;20.14;72.27
71184;DHT22;58887;51.980;4.464;2023-10-19T12:00:24;20.01;73.00
71184;DHT22;58887;51.980;4.464;2023-10-19T12:02:59;19.80;73.84
71184;DHT22;58887;51.980;4.464;2023-10-19T12:05:32;19.76;73.90
71184;DHT22;58887;51.980;4.464;2023-10-19T12:08:02;19.78;74.25
71184;DHT22;58887;51.980;4.464;2023-10-19T12:10:28;19.61;74.67
71184;DHT22;58887;51.980;4.464;2023-10-19T12:13:04;19.51;74.81
71184;DHT22;58887;51.980;4.464;2023-10-19T12:15:33;19.42;75.30
71184;DHT22;58887;51.980;4.464;2023-10-19T12:18:01;19.51;75.29
71184;DHT22;58887;51.980;4.464;2023-10-19T12:20:32;19.45;75.22
71184;DHT22;58887;51.980;4.464;2023-10-19T12:22:58;19.38;75.62
71184;DHT22;58887;51.980;4.464;2023-10-19T12:25:25;19.38;75.84
71184;DHT22;58887;51.980;4.464;2023-10-19T12:28:02;19.38;75.79
71184;DHT22;58887;51.980;4.464;2023-10-19T12:30:29;19.31;75.52
71184;DHT22;58887;51.980;4.464;2023-10-19T12:33:01;19.27;75.68
71184;DHT22;58887;51.980;4.464;2023-10-19T12:35:28;19.25;75.57
71184;DHT22;58887;51.980;4.464;2023-10-19T12:38:18;19.18;75.90
71184;DHT22;58887;51.980;4.464;2023-10-19T12:40:47;19.10;76.12
71184;DHT22;58887;51.980;4.464;2023-10-19T12:43:16;19.11;75.87
71184;DHT22;58887;51.980;4.464;2023-10-19T12:45:45;19.29;76.05
71184;DHT22;58887;51.980;4.464;2023-10-19T12:48:17;19.34;75.77
71184;DHT22;58887;51.980;4.464;2023-10-19T12:50:43;19.24;76.04
71184;DHT22;58887;51.980;4.464;2023-10-19T12:53:10;19.27;76.38
71184;DHT22;58887;51.980;4.464;2023-10-19T12:55:35;19.28;76.16
71184;DHT22;58887;51.980;4.464;2023-10-19T12:58:04;19.31;76.55
71184;DHT22;58887;51.980;4.464;2023-10-19T13:00:33;19.36;76.54
71184;DHT22;58887;51.980;4.464;2023-10-19T13:03:07;19.49;76.71
71184;DHT22;58887;51.980;4.464;2023-10-19T13:05:34;19.47;76.41
71184;DHT22;58887;51.980;4.464;2023-10-19T13:08:01;19.48;76.21
71184;DHT22;58887;51.980;4.464;2023-10-19T13:10:35;19.49;76.50
71184;DHT22;58887;51.980;4.464;2023-10-19T13:13:05;19.34;76.39
71184;DHT22;58887;51.980;4.464;2023-10-19T13:15:36;19.27;76.91
71184;DHT22;58887;51.980;4.464;2023-10-19T13:18:06;19.12;78.01
71184;DHT22;58887;51.980;4.464;2023-10-19T13:20:34;19.12;77.77
71184;DHT22;58887;51.980;4.464;2023-10-19T13:23:08;19.03;78.03
71184;DHT22;58887;51.980;4.464;2023-10-19T13:25:38;18.76;78.67
71184;DHT22;58887;51.980;4.464;2023-10-19T13:28:16;18.77;79.43
71184;DHT22;58887;51.980;4.464;2023-10-19T13:30:50;18.74;79.33
71184;DHT22;58887;51.980;4.464;2023-10-19T13:33:17;18.84;79.45
71184;DHT22;58887;51.980;4.464;2023-10-19T13:35:45;18.93;79.47
71184;DHT22;58887;51.980;4.464;2023-10-19T13:38:12;19.00;79.25
71184;DHT22;58887;51.980;4.464;2023-10-19T13:40:47;18.97;79.66
71184;DHT22;58887;51.980;4.464;2023-10-19T13:43:18;18.94;79.71
71184;DHT22;58887;51.980;4.464;2023-10-19T13:45:47;18.96;79.61
71184;DHT22;58887;51.980;4.464;2023-10-19T13:48:15;18.84;79.92
71184;DHT22;58887;51.980;4.464;2023-10-19T13:50:46;18.71;80.22
71184;DHT22;58887;51.980;4.464;2023-10-19T13:53:17;18.61;80.69
71184;DHT22;58887;51.980;4.464;2023-10-19T13:55:43;18.60;80.62
71184;DHT22;58887;51.980;4.464;2023-10-19T13:58:16;18.63;80.89
71184;DHT22;58887;51.980;4.464;2023-10-19T14:00:42;18.52;81.01
71184;DHT22;58887;51.980;4.464;2023-10-19T14:03:09;18.42;81.42
71184;DHT22;58887;51.980;4.464;2023-10-19T14:05:37;18.39;81.70
71184;DHT22;58887;51.980;4.464;2023-10-19T14:08:05;18.35;81.68
71184;DHT22;58887;51.980;4.464;2023-10-19T14:10:30;18.25;81.99
71184;DHT22;58887;51.980;4.464;2023-10-19T14:12:56;18.22;82.20
71184;DHT22;58887;51.980;4.464;2023-10-19T14:15:22;18.13;82.21
71184;DHT22;58887;51.980;4.464;2023-10-19T14:17:49;18.11;82.49
71184;DHT22;58887;51.980;4.464;2023-10-19T14:20:16;18.09;82.38
71184;DHT22;58887;51.980;4.464;2023-10-19T14:22:44;18.06;82.36
71184;DHT22;58887;51.980;4.464;2023-10-19T14:25:12;18.02;82.58
71184;DHT22;58887;51.980;4.464;2023-10-19T14:27:45;18.04;82.70
71184;DHT22;58887;51.980;4.464;2023-10-19T14:30:16;18.06;82.75
71184;DHT22;58887;51.980;4.464;2023-10-19T14:32:46;18.16;82.74
71184;DHT22;58887;51.980;4.464;2023-10-19T14:35:20;18.18;82.51
71184;DHT22;58887;51.980;4.464;2023-10-19T14:37:48;18.19;82.56
71184;DHT22;58887;51.980;4.464;2023-10-19T14:40:21;18.36;82.37
71184;DHT22;58887;51.980;4.464;2023-10-19T14:42:49;18.45;82.13
71184;DHT22;58887;51.980;4.464;2023-10-19T14:45:17;18.48;81.59
71184;DHT22;58887;51.980;4.464;2023-10-19T14:47:50;18.45;81.91
71184;DHT22;58887;51.980;4.464;2023-10-19T14:50:17;18.46;81.98
71184;DHT22;58887;51.980;4.464;2023-10-19T14:52:46;18.59;81.46
71184;DHT22;58887;51.980;4.464;2023-10-19T14:55:12;18.91;80.89
71184;DHT22;58887;51.980;4.464;2023-10-19T14:57:42;18.83;80.95
71184;DHT22;58887;51.980;4.464;2023-10-19T15:00:09;18.74;80.69
71184;DHT22;58887;51.980;4.464;2023-10-19T15:02:54;18.59;81.26
71184;DHT22;58887;51.980;4.464;2023-10-19T15:05:27;18.59;81.53
71184;DHT22;58887;51.980;4.464;2023-10-19T15:07:54;18.45;81.40
71184;DHT22;58887;51.980;4.464;2023-10-19T15:10:25;18.29;82.16
71184;DHT22;58887;51.980;4.464;2023-10-19T15:12:51;18.21;82.39
71184;DHT22;58887;51.980;4.464;2023-10-19T15:15:18;18.30;82.26
71184;DHT22;58887;51.980;4.464;2023-10-19T15:17:44;18.35;81.86
71184;DHT22;58887;51.980;4.464;2023-10-19T15:20:13;18.30;82.04
71184;DHT22;58887;51.980;4.464;2023-10-19T15:22:43;18.35;82.01
71184;DHT22;58887;51.980;4.464;2023-10-19T15:25:23;18.35;81.80
71184;DHT22;58887;51.980;4.464;2023-10-19T15:27:52;18.35;81.82
71184;DHT22;58887;51.980;4.464;2023-10-19T15:30:21;18.30;81.97
71184;DHT22;58887;51.980;4.464;2023-10-19T15:32:49;18.24;82.22
71184;DHT22;58887;51.980;4.464;2023-10-19T15:35:18;18.28;82.17
71184;DHT22;58887;51.980;4.464;2023-10-19T15:37:49;18.22;81.82
71184;DHT22;58887;51.980;4.464;2023-10-19T15:40:17;18.22;82.20
71184;DHT22;58887;51.980;4.464;2023-10-19T15:42:43;18.16;82.31
71184;DHT22;58887;51.980;4.464;2023-10-19T15:45:11;18.13;82.26
71184;DHT22;58887;51.980;4.464;2023-10-19T15:47:40;18.15;82.29
71184;DHT22;58887;51.980;4.464;2023-10-19T15:50:08;18.16;82.38
71184;DHT22;58887;51.980;4.464;2023-10-19T15:52:36;18.09;82.29
71184;DHT22;58887;51.980;4.464;2023-10-19T15:55:08;18.09;82.38
71184;DHT22;58887;51.980;4.464;2023-10-19T15:57:33;18.05;82.80
71184;DHT22;58887;51.980;4.464;2023-10-19T16:00:00;18.15;82.51
71184;DHT22;58887;51.980;4.464;2023-10-19T16:02:25;18.18;82.48